createdAt,value
2018-05-11T00:00:46.670Z,991.44
2018-05-11T00:01:53.502Z,991.50
2018-05-11T00:03:00.283Z,991.38
2018-05-11T00:04:07.278Z,991.41
2018-05-11T00:05:14.039Z,991.45
2018-05-11T00:06:20.827Z,991.49
2018-05-11T00:07:27.714Z,991.47
2018-05-11T00:08:34.574Z,991.45
2018-05-11T00:09:41.350Z,991.46
2018-05-11T00:10:48.118Z,991.43
2018-05-11T00:11:54.894Z,991.49
2018-05-11T00:13:01.712Z,991.46
2018-05-11T00:14:08.532Z,991.46
2018-05-11T00:15:15.374Z,991.42
2018-05-11T00:16:22.290Z,991.47
2018-05-11T00:17:29.144Z,991.47
2018-05-11T00:18:36.128Z,991.50
2018-05-11T00:19:43.026Z,991.50
2018-05-11T00:20:49.913Z,991.48
2018-05-11T00:21:56.758Z,991.54
2018-05-11T00:23:03.555Z,991.51
2018-05-11T00:24:10.351Z,991.44
2018-05-11T00:25:17.126Z,991.51
2018-05-11T00:26:23.960Z,991.56
2018-05-11T00:27:30.794Z,991.42
2018-05-11T00:28:37.583Z,991.44
2018-05-11T00:29:44.619Z,991.48
2018-05-11T00:30:51.431Z,991.47
2018-05-11T00:31:58.232Z,991.47
2018-05-11T00:33:05.012Z,991.38
2018-05-11T00:34:11.799Z,991.45
2018-05-11T00:35:18.606Z,991.48
2018-05-11T00:36:25.430Z,991.41
2018-05-11T00:37:32.310Z,991.42
2018-05-11T00:38:39.205Z,991.52
2018-05-11T00:39:46.027Z,991.41
2018-05-11T00:40:52.843Z,991.36
2018-05-11T00:41:59.685Z,991.35
2018-05-11T00:43:06.512Z,991.42
2018-05-11T00:44:13.286Z,991.43
2018-05-11T00:45:20.091Z,991.35
2018-05-11T00:46:26.902Z,991.41
2018-05-11T00:47:33.705Z,991.38
2018-05-11T00:48:40.534Z,991.34
2018-05-11T00:49:47.312Z,991.36
2018-05-11T00:50:54.119Z,991.42
2018-05-11T00:52:00.978Z,991.40
2018-05-11T00:53:07.948Z,991.38
2018-05-11T00:54:14.747Z,991.35
2018-05-11T00:55:21.516Z,991.37
2018-05-11T00:56:28.391Z,991.35
2018-05-11T00:57:35.205Z,991.36
2018-05-11T00:58:42.012Z,991.37
2018-05-11T00:59:48.815Z,991.37
2018-05-11T01:00:55.627Z,991.41
2018-05-11T01:02:02.455Z,991.37
2018-05-11T01:03:09.367Z,991.38
2018-05-11T01:04:16.278Z,991.42
2018-05-11T01:05:23.142Z,991.44
2018-05-11T01:06:29.940Z,991.45
2018-05-11T01:07:36.754Z,991.40
2018-05-11T01:08:43.547Z,991.37
2018-05-11T01:09:50.419Z,991.36
2018-05-11T01:10:57.207Z,991.36
2018-05-11T01:12:04.015Z,991.35
2018-05-11T01:13:10.783Z,991.36
2018-05-11T01:14:17.605Z,991.37
2018-05-11T01:15:24.402Z,991.34
2018-05-11T01:16:31.183Z,991.34
2018-05-11T01:17:37.987Z,991.37
2018-05-11T01:18:44.840Z,991.35
2018-05-11T01:19:51.600Z,991.35
2018-05-11T01:20:58.627Z,991.36
2018-05-11T01:22:05.422Z,991.37
2018-05-11T01:23:12.211Z,991.42
2018-05-11T01:24:19.029Z,991.40
2018-05-11T01:25:25.823Z,991.41
2018-05-11T01:26:32.619Z,991.39
2018-05-11T01:27:39.503Z,991.42
2018-05-11T01:28:46.295Z,991.30
2018-05-11T01:29:53.062Z,991.36
2018-05-11T01:30:59.931Z,991.36
2018-05-11T01:32:06.780Z,991.36
2018-05-11T01:33:13.531Z,991.29
2018-05-11T01:34:20.321Z,991.25
2018-05-11T01:35:27.117Z,991.30
2018-05-11T01:36:33.944Z,991.30
2018-05-11T01:37:40.785Z,991.30
2018-05-11T01:38:47.582Z,991.23
2018-05-11T01:39:54.432Z,991.25
2018-05-11T01:41:01.200Z,991.22
2018-05-11T01:42:08.058Z,991.17
2018-05-11T01:43:14.835Z,991.12
2018-05-11T01:44:21.631Z,991.19
2018-05-11T01:45:28.401Z,991.16
2018-05-11T01:46:35.217Z,991.20
2018-05-11T01:47:42.062Z,991.25
2018-05-11T01:48:48.846Z,991.26
2018-05-11T01:49:55.652Z,991.22
2018-05-11T01:51:02.467Z,991.26
2018-05-11T01:52:09.374Z,991.27
2018-05-11T01:53:16.264Z,991.15
2018-05-11T01:54:23.030Z,991.15
2018-05-11T01:55:29.819Z,991.18
2018-05-11T01:56:36.689Z,991.18
2018-05-11T01:57:43.521Z,991.18
2018-05-11T01:58:50.326Z,991.18
2018-05-11T01:59:57.137Z,991.19
2018-05-11T02:01:03.969Z,991.18
2018-05-11T02:02:10.787Z,991.19
2018-05-11T02:03:17.671Z,991.15
2018-05-11T02:04:24.459Z,991.20
2018-05-11T02:05:31.333Z,991.14
2018-05-11T02:06:38.111Z,991.17
2018-05-11T02:07:44.905Z,991.12
2018-05-11T02:08:51.774Z,991.11
2018-05-11T02:09:58.567Z,991.08
2018-05-11T02:11:05.427Z,991.16
2018-05-11T02:12:12.223Z,991.15
2018-05-11T02:13:19.015Z,991.22
2018-05-11T02:14:25.869Z,991.17
2018-05-11T02:15:32.719Z,991.20
2018-05-11T02:16:39.541Z,991.20
2018-05-11T02:17:46.452Z,991.16
2018-05-11T02:18:53.230Z,991.16
2018-05-11T02:20:00.016Z,991.11
2018-05-11T02:21:06.921Z,991.10
2018-05-11T02:22:13.750Z,991.06
2018-05-11T02:23:20.927Z,991.05
2018-05-11T02:24:27.801Z,991.11
2018-05-11T02:25:34.658Z,991.14
2018-05-11T02:26:41.457Z,991.10
2018-05-11T02:27:48.251Z,991.11
2018-05-11T02:28:55.056Z,991.08
2018-05-11T02:30:01.823Z,991.08
2018-05-11T02:31:08.650Z,991.04
2018-05-11T02:32:15.532Z,991.05
2018-05-11T02:33:22.411Z,991.03
2018-05-11T02:34:29.168Z,991.04
2018-05-11T02:35:35.985Z,990.97
2018-05-11T02:36:42.823Z,991.03
2018-05-11T02:37:49.758Z,990.98
2018-05-11T02:38:56.631Z,991.04
2018-05-11T02:40:03.526Z,990.97
2018-05-11T02:41:10.371Z,990.94
2018-05-11T02:42:17.218Z,990.95
2018-05-11T02:43:23.994Z,990.98
2018-05-11T02:44:30.795Z,990.98
2018-05-11T02:45:37.595Z,991.01
2018-05-11T02:46:44.404Z,991.04
2018-05-11T02:47:51.314Z,991.03
2018-05-11T02:48:58.092Z,991.05
2018-05-11T02:50:04.954Z,991.10
2018-05-11T02:51:11.793Z,991.04
2018-05-11T02:52:18.616Z,991.05
2018-05-11T02:53:25.415Z,991.03
2018-05-11T02:54:32.195Z,991.03
2018-05-11T02:55:38.995Z,990.98
2018-05-11T02:56:45.817Z,991.07
2018-05-11T02:57:52.634Z,991.01
2018-05-11T02:58:59.441Z,990.98
2018-05-11T03:00:06.227Z,990.99
2018-05-11T03:01:13.130Z,991.04
2018-05-11T03:02:20.015Z,991.06
2018-05-11T03:03:26.814Z,991.02
2018-05-11T03:04:33.591Z,991.02
2018-05-11T03:05:40.387Z,991.07
2018-05-11T03:06:47.224Z,991.04
2018-05-11T03:07:54.143Z,991.10
2018-05-11T03:09:00.999Z,991.02
2018-05-11T03:10:08.107Z,991.10
2018-05-11T03:11:14.895Z,991.02
2018-05-11T03:12:21.715Z,991.06
2018-05-11T03:13:28.523Z,991.02
2018-05-11T03:14:35.311Z,991.11
2018-05-11T03:15:42.142Z,991.08
2018-05-11T03:16:48.931Z,991.01
2018-05-11T03:17:55.870Z,991.08
2018-05-11T03:19:02.648Z,991.06
2018-05-11T03:20:09.548Z,991.07
2018-05-11T03:21:16.319Z,991.08
2018-05-11T03:22:23.112Z,991.04
2018-05-11T03:23:29.944Z,991.03
2018-05-11T03:24:36.842Z,991.12
2018-05-11T03:25:43.653Z,991.11
2018-05-11T03:26:50.490Z,991.01
2018-05-11T03:27:57.337Z,991.03
2018-05-11T03:29:04.119Z,991.03
2018-05-11T03:30:10.930Z,991.00
2018-05-11T03:31:17.788Z,991.05
2018-05-11T03:32:24.695Z,991.03
2018-05-11T03:33:31.507Z,991.07
2018-05-11T03:34:38.343Z,991.09
2018-05-11T03:35:45.154Z,991.13
2018-05-11T03:36:51.949Z,991.07
2018-05-11T03:37:58.878Z,991.09
2018-05-11T03:39:05.664Z,991.12
2018-05-11T03:40:12.538Z,991.09
2018-05-11T03:41:19.336Z,991.11
2018-05-11T03:42:26.191Z,991.17
2018-05-11T03:43:33.044Z,991.07
2018-05-11T03:44:39.868Z,991.16
2018-05-11T03:45:46.668Z,991.20
2018-05-11T03:46:53.480Z,991.25
2018-05-11T03:48:00.311Z,991.23
2018-05-11T03:49:07.248Z,991.20
2018-05-11T03:50:14.100Z,991.18
2018-05-11T03:51:20.930Z,991.13
2018-05-11T03:52:27.787Z,991.21
2018-05-11T03:53:34.631Z,991.24
2018-05-11T03:54:41.516Z,991.21
2018-05-11T03:55:48.335Z,991.20
2018-05-11T03:56:55.255Z,991.19
2018-05-11T03:58:02.108Z,991.34
2018-05-11T03:59:08.987Z,991.26
2018-05-11T04:00:15.791Z,991.24
2018-05-11T04:01:22.615Z,991.21
2018-05-11T04:02:29.542Z,991.19
2018-05-11T04:03:36.533Z,991.25
2018-05-11T04:04:44.743Z,991.19
2018-05-11T04:05:51.651Z,991.24
2018-05-11T04:06:58.304Z,991.23
2018-05-11T04:09:15.164Z,991.25
2018-05-11T04:10:21.982Z,991.22
2018-05-11T04:11:29.914Z,991.26
2018-05-11T04:12:35.750Z,991.30
2018-05-11T04:13:42.582Z,991.23
2018-05-11T04:14:49.475Z,991.31
2018-05-11T04:15:56.339Z,991.27
2018-05-11T04:17:03.254Z,991.31
2018-05-11T04:18:10.095Z,991.29
2018-05-11T04:19:16.898Z,991.30
2018-05-11T04:20:23.700Z,991.32
2018-05-11T04:21:30.551Z,991.22
2018-05-11T04:22:37.478Z,991.27
2018-05-11T04:23:44.313Z,991.30
2018-05-11T04:24:51.111Z,991.25
2018-05-11T04:25:57.889Z,991.24
2018-05-11T04:27:04.683Z,991.28
2018-05-11T04:28:11.516Z,991.29
2018-05-11T04:29:18.353Z,991.34
2018-05-11T04:30:25.201Z,991.29
2018-05-11T04:31:32.096Z,991.36
2018-05-11T04:32:38.872Z,991.29
2018-05-11T04:33:45.702Z,991.30
2018-05-11T04:34:52.639Z,991.33
2018-05-11T04:35:59.451Z,991.35
2018-05-11T04:37:06.318Z,991.30
2018-05-11T04:38:13.153Z,991.27
2018-05-11T04:39:19.938Z,991.33
2018-05-11T04:40:26.779Z,991.30
2018-05-11T04:41:33.744Z,991.32
2018-05-11T04:42:40.668Z,991.32
2018-05-11T04:43:47.750Z,991.32
2018-05-11T04:44:54.582Z,991.37
2018-05-11T04:46:01.413Z,991.35
2018-05-11T04:47:08.309Z,991.38
2018-05-11T04:48:15.262Z,991.36
2018-05-11T04:49:22.095Z,991.35
2018-05-11T04:50:28.996Z,991.37
2018-05-11T04:51:35.928Z,991.32
2018-05-11T04:52:42.904Z,991.38
2018-05-11T04:53:49.807Z,991.36
2018-05-11T04:54:56.611Z,991.35
2018-05-11T04:56:03.467Z,991.42
2018-05-11T04:57:10.398Z,991.35
2018-05-11T04:58:17.259Z,991.36
2018-05-11T04:59:24.154Z,991.36
2018-05-11T05:00:31.040Z,991.33
2018-05-11T05:01:37.958Z,991.31
2018-05-11T05:02:44.792Z,991.36
2018-05-11T05:03:51.723Z,991.34
2018-05-11T05:04:58.595Z,991.40
2018-05-11T05:06:05.497Z,991.40
2018-05-11T05:07:12.347Z,991.34
2018-05-11T05:08:19.324Z,991.36
2018-05-11T05:09:26.142Z,991.31
2018-05-11T05:10:32.931Z,991.37
2018-05-11T05:11:39.710Z,991.35
2018-05-11T05:12:46.492Z,991.42
2018-05-11T05:13:53.296Z,991.37
2018-05-11T05:15:00.079Z,991.37
2018-05-11T05:16:06.888Z,991.28
2018-05-11T05:17:13.669Z,991.24
2018-05-11T05:18:20.506Z,991.22
2018-05-11T05:19:27.372Z,991.24
2018-05-11T05:20:34.258Z,991.25
2018-05-11T05:21:41.105Z,991.19
2018-05-11T05:22:48.035Z,991.22
2018-05-11T05:23:54.885Z,991.24
2018-05-11T05:25:01.810Z,991.24
2018-05-11T05:26:08.679Z,991.25
2018-05-11T05:27:15.589Z,991.26
2018-05-11T05:28:22.463Z,991.25
2018-05-11T05:29:29.359Z,991.29
2018-05-11T05:30:36.170Z,991.27
2018-05-11T05:31:42.996Z,991.25
2018-05-11T05:32:49.924Z,991.22
2018-05-11T05:33:56.803Z,991.29
2018-05-11T05:35:03.660Z,991.28
2018-05-11T05:36:10.542Z,991.30
2018-05-11T05:37:17.401Z,991.19
2018-05-11T05:38:24.242Z,991.31
2018-05-11T05:39:31.064Z,991.23
2018-05-11T05:40:37.926Z,991.23
2018-05-11T05:41:45.062Z,991.27
2018-05-11T05:42:51.491Z,991.25
2018-05-11T05:43:58.403Z,991.25
2018-05-11T05:45:05.261Z,991.18
2018-05-11T05:46:12.048Z,991.25
2018-05-11T05:47:18.857Z,991.22
2018-05-11T05:48:25.703Z,991.19
2018-05-11T05:49:32.488Z,991.25
2018-05-11T05:50:39.313Z,991.20
2018-05-11T05:51:46.115Z,991.22
2018-05-11T05:52:52.947Z,991.18
2018-05-11T05:53:59.751Z,991.21
2018-05-11T05:55:06.568Z,991.22
2018-05-11T05:56:13.389Z,991.17
2018-05-11T05:57:20.363Z,991.17
2018-05-11T05:58:27.343Z,991.11
2018-05-11T05:59:34.125Z,991.24
2018-05-11T06:00:41.033Z,991.16
2018-05-11T06:01:47.906Z,991.23
2018-05-11T06:02:54.770Z,991.21
2018-05-11T06:04:01.593Z,991.16
2018-05-11T06:05:08.738Z,991.19
2018-05-11T06:06:15.529Z,991.11
2018-05-11T06:07:22.354Z,991.19
2018-05-11T06:08:29.235Z,991.11
2018-05-11T06:09:36.018Z,991.18
2018-05-11T06:10:42.811Z,991.17
2018-05-11T06:11:49.615Z,991.17
2018-05-11T06:12:56.447Z,991.12
2018-05-11T06:14:03.378Z,991.24
2018-05-11T06:15:10.200Z,991.23
2018-05-11T06:16:16.965Z,991.24
2018-05-11T06:17:23.765Z,991.18
2018-05-11T06:18:30.572Z,991.25
2018-05-11T06:19:37.360Z,991.22
2018-05-11T06:20:44.261Z,991.24
2018-05-11T06:21:51.133Z,991.24
2018-05-11T06:22:57.991Z,991.25
2018-05-11T06:24:04.782Z,991.23
2018-05-11T06:25:11.574Z,991.30
2018-05-11T06:26:18.395Z,991.32
2018-05-11T06:27:25.187Z,991.28
2018-05-11T06:28:32.047Z,991.20
2018-05-11T06:29:38.832Z,991.22
2018-05-11T06:30:45.610Z,991.22
2018-05-11T06:31:52.407Z,991.22
2018-05-11T06:32:59.233Z,991.25
2018-05-11T06:34:06.021Z,991.18
2018-05-11T06:35:12.881Z,991.24
2018-05-11T06:36:19.663Z,991.23
2018-05-11T06:37:26.438Z,991.30
2018-05-11T06:38:33.301Z,991.24
2018-05-11T06:39:40.199Z,991.29
2018-05-11T06:40:47.130Z,991.24
2018-05-11T06:41:53.950Z,991.26
2018-05-11T06:43:04.960Z,991.25
2018-05-11T06:44:07.944Z,991.31
2018-05-11T06:45:14.772Z,991.36
2018-05-11T06:46:21.540Z,991.29
2018-05-11T06:47:28.379Z,991.32
2018-05-11T06:48:35.251Z,991.34
2018-05-11T06:49:42.006Z,991.39
2018-05-11T06:50:48.775Z,991.41
2018-05-11T06:51:55.683Z,991.39
2018-05-11T06:53:02.585Z,991.35
2018-05-11T06:54:09.534Z,991.37
2018-05-11T06:55:16.377Z,991.36
2018-05-11T06:56:23.250Z,991.33
2018-05-11T06:57:30.038Z,991.30
2018-05-11T06:58:36.839Z,991.30
2018-05-11T06:59:43.630Z,991.34
2018-05-11T07:00:50.538Z,991.35
2018-05-11T07:01:57.423Z,991.31
2018-05-11T07:03:04.214Z,991.33
2018-05-11T07:04:11.031Z,991.33
2018-05-11T07:05:17.926Z,991.40
2018-05-11T07:06:24.701Z,991.32
2018-05-11T07:07:31.476Z,991.39
2018-05-11T07:08:38.302Z,991.36
2018-05-11T07:09:45.104Z,991.42
2018-05-11T07:10:51.895Z,991.29
2018-05-11T07:11:59.032Z,991.26
2018-05-11T07:13:05.846Z,991.29
2018-05-11T07:14:12.635Z,991.35
2018-05-11T07:15:19.632Z,991.31
2018-05-11T07:16:26.355Z,991.31
2018-05-11T07:17:33.181Z,991.25
2018-05-11T07:18:40.047Z,991.33
2018-05-11T07:19:46.831Z,991.34
2018-05-11T07:20:53.646Z,991.25
2018-05-11T07:22:00.488Z,991.24
2018-05-11T07:23:07.359Z,991.29
2018-05-11T07:24:14.195Z,991.29
2018-05-11T07:25:20.980Z,991.28
2018-05-11T07:26:27.782Z,991.29
2018-05-11T07:27:34.613Z,991.24
2018-05-11T07:28:41.479Z,991.23
2018-05-11T07:29:48.293Z,991.18
2018-05-11T07:30:55.111Z,991.20
2018-05-11T07:32:01.955Z,991.15
2018-05-11T07:33:08.851Z,991.16
2018-05-11T07:34:15.647Z,991.14
2018-05-11T07:35:22.723Z,991.21
2018-05-11T07:36:29.625Z,991.15
2018-05-11T07:37:37.099Z,991.11
2018-05-11T07:38:43.537Z,991.12
2018-05-11T07:39:50.354Z,991.12
2018-05-11T07:40:57.299Z,991.03
2018-05-11T07:42:04.077Z,991.13
2018-05-11T07:43:11.084Z,991.01
2018-05-11T07:44:17.854Z,991.05
2018-05-11T07:45:24.683Z,991.04
2018-05-11T07:46:31.521Z,990.98
2018-05-11T07:47:38.316Z,991.00
2018-05-11T07:48:45.119Z,990.97
2018-05-11T07:49:51.947Z,991.00
2018-05-11T07:50:58.779Z,990.95
2018-05-11T07:52:05.476Z,990.92
2018-05-11T07:53:12.355Z,990.92
2018-05-11T07:54:19.194Z,990.99
2018-05-11T07:55:25.968Z,990.87
2018-05-11T07:56:32.756Z,990.83
2018-05-11T07:57:39.541Z,990.99
2018-05-11T07:58:46.359Z,990.92
2018-05-11T07:59:53.194Z,990.94
2018-05-11T08:01:00.342Z,990.87
2018-05-11T08:02:07.228Z,990.86
2018-05-11T08:03:14.119Z,990.82
2018-05-11T08:04:20.984Z,990.83
2018-05-11T08:05:27.769Z,990.79
2018-05-11T08:06:34.562Z,990.71
2018-05-11T08:07:41.365Z,990.79
2018-05-11T08:08:48.138Z,990.71
2018-05-11T08:09:54.941Z,990.77
2018-05-11T08:11:01.748Z,990.74
2018-05-11T08:12:08.512Z,990.75
2018-05-11T08:13:15.346Z,990.78
2018-05-11T08:14:22.188Z,990.72
2018-05-11T08:15:28.897Z,990.77
2018-05-11T08:16:35.794Z,990.69
2018-05-11T08:17:42.684Z,990.64
2018-05-11T08:18:49.554Z,990.70
2018-05-11T08:19:56.348Z,990.70
2018-05-11T08:21:03.110Z,990.60
2018-05-11T08:22:09.989Z,990.65
2018-05-11T08:23:16.778Z,990.70
2018-05-11T08:24:23.591Z,990.65
2018-05-11T08:25:30.435Z,990.63
2018-05-11T08:26:37.272Z,990.64
2018-05-11T08:27:44.214Z,990.62
2018-05-11T08:28:50.977Z,990.63
2018-05-11T08:29:57.763Z,990.57
2018-05-11T08:31:04.596Z,990.60
2018-05-11T08:32:11.747Z,990.58
2018-05-11T08:33:18.534Z,990.54
2018-05-11T08:34:26.030Z,990.53
2018-05-11T08:35:32.551Z,990.58
2018-05-11T08:36:39.350Z,990.45
2018-05-11T08:37:46.327Z,990.50
2018-05-11T08:38:53.127Z,990.54
2018-05-11T08:39:59.904Z,990.51
2018-05-11T08:41:06.851Z,990.46
2018-05-11T08:42:13.982Z,990.47
2018-05-11T08:43:20.755Z,990.46
2018-05-11T08:44:27.591Z,990.50
2018-05-11T08:45:34.748Z,990.48
2018-05-11T08:46:41.647Z,990.41
2018-05-11T08:47:48.319Z,990.35
2018-05-11T08:48:55.170Z,990.36
2018-05-11T08:50:02.078Z,990.31
2018-05-11T08:51:08.894Z,990.39
2018-05-11T08:52:15.667Z,990.30
2018-05-11T08:53:22.462Z,990.30
2018-05-11T08:54:29.287Z,990.28
2018-05-11T08:55:36.038Z,990.26
2018-05-11T08:56:42.940Z,990.20
2018-05-11T08:57:49.791Z,990.29
2018-05-11T08:58:56.632Z,990.29
2018-05-11T09:00:03.393Z,990.22
2018-05-11T09:01:10.199Z,990.19
2018-05-11T09:02:17.047Z,990.12
2018-05-11T09:03:23.806Z,990.13
2018-05-11T09:04:30.584Z,990.15
2018-05-11T09:05:37.458Z,990.14
2018-05-11T09:06:44.219Z,990.11
2018-05-11T09:07:51.044Z,990.09
2018-05-11T09:08:57.873Z,990.18
2018-05-11T09:10:04.626Z,990.17
2018-05-11T09:11:11.426Z,990.08
2018-05-11T09:12:18.277Z,990.07
2018-05-11T09:13:25.057Z,990.08
2018-05-11T09:14:31.854Z,990.08
2018-05-11T09:15:40.106Z,990.12
2018-05-11T09:16:45.450Z,990.15
2018-05-11T09:17:52.254Z,990.13
2018-05-11T09:18:59.477Z,990.21
2018-05-11T09:20:06.281Z,990.07
2018-05-11T09:21:13.076Z,990.08
2018-05-11T09:22:19.843Z,990.08
2018-05-11T09:23:26.650Z,990.04
2018-05-11T09:24:33.479Z,990.03
2018-05-11T09:25:41.669Z,990.03
2018-05-11T09:26:47.047Z,990.04
2018-05-11T09:27:53.911Z,990.01
2018-05-11T09:29:01.167Z,989.95
2018-05-11T09:30:07.992Z,989.98
2018-05-11T09:31:14.856Z,989.99
2018-05-11T09:32:21.596Z,989.99
2018-05-11T09:33:28.379Z,989.90
2018-05-11T09:34:35.138Z,989.96
2018-05-11T09:35:41.859Z,989.90
2018-05-11T09:36:48.598Z,989.93
2018-05-11T09:37:55.333Z,989.83
2018-05-11T09:39:02.080Z,989.90
2018-05-11T09:40:08.967Z,989.86
2018-05-11T09:41:15.842Z,989.77
2018-05-11T09:42:22.570Z,989.80
2018-05-11T09:43:29.314Z,989.82
2018-05-11T09:44:36.067Z,989.81
2018-05-11T09:45:43.149Z,989.84
2018-05-11T09:46:49.914Z,989.77
2018-05-11T09:47:56.707Z,989.75
2018-05-11T09:49:03.510Z,989.80
2018-05-11T09:50:10.312Z,989.78
2018-05-11T09:51:17.098Z,989.76
2018-05-11T09:52:23.851Z,989.82
2018-05-11T09:53:30.611Z,989.82
2018-05-11T09:54:37.351Z,989.80
2018-05-11T09:55:44.114Z,989.75
2018-05-11T09:56:50.922Z,989.75
2018-05-11T09:57:57.683Z,989.73
2018-05-11T09:59:04.431Z,989.79
2018-05-11T10:00:11.227Z,989.70
2018-05-11T10:01:18.069Z,989.65
2018-05-11T10:02:24.844Z,989.83
2018-05-11T10:03:31.621Z,989.78
2018-05-11T10:04:38.427Z,989.77
2018-05-11T10:05:45.474Z,989.67
2018-05-11T10:06:52.314Z,989.74
2018-05-11T10:07:59.159Z,989.67
2018-05-11T10:09:05.930Z,989.75
2018-05-11T10:10:13.010Z,989.70
2018-05-11T10:11:19.789Z,989.70
2018-05-11T10:12:26.788Z,989.68
2018-05-11T10:13:33.727Z,989.74
2018-05-11T10:14:40.667Z,989.73
2018-05-11T10:15:47.523Z,989.62
2018-05-11T10:16:54.331Z,989.68
2018-05-11T10:18:01.192Z,989.69
2018-05-11T10:19:08.001Z,989.59
2018-05-11T10:20:14.851Z,989.63
2018-05-11T10:21:21.768Z,989.65
2018-05-11T10:22:28.561Z,989.70
2018-05-11T10:23:35.599Z,989.68
2018-05-11T10:24:42.439Z,989.72
2018-05-11T10:25:49.497Z,989.65
2018-05-11T10:26:56.286Z,989.65
2018-05-11T10:28:03.056Z,989.59
2018-05-11T10:29:09.911Z,989.62
2018-05-11T10:30:16.730Z,989.61
2018-05-11T10:31:23.517Z,989.56
2018-05-11T10:32:30.468Z,989.50
2018-05-11T10:33:37.214Z,989.56
2018-05-11T10:34:44.022Z,989.58
2018-05-11T10:35:50.995Z,989.50
2018-05-11T10:36:57.863Z,989.52
2018-05-11T10:38:04.631Z,989.46
2018-05-11T10:39:11.419Z,989.46
2018-05-11T10:40:18.243Z,989.49
2018-05-11T10:41:25.155Z,989.40
2018-05-11T10:42:31.962Z,989.44
2018-05-11T10:43:38.787Z,989.40
2018-05-11T10:44:45.671Z,989.39
2018-05-11T10:45:52.447Z,989.40
2018-05-11T10:46:59.372Z,989.38
2018-05-11T10:48:06.242Z,989.33
2018-05-11T10:49:13.120Z,989.31
2018-05-11T10:50:19.903Z,989.39
2018-05-11T10:51:26.713Z,989.36
2018-05-11T10:52:33.535Z,989.44
2018-05-11T10:53:40.334Z,989.32
2018-05-11T10:54:47.160Z,989.38
2018-05-11T10:55:54.033Z,989.35
2018-05-11T10:57:00.816Z,989.34
2018-05-11T10:58:07.719Z,989.34
2018-05-11T10:59:14.548Z,989.24
2018-05-11T11:00:21.512Z,989.29
2018-05-11T11:01:28.347Z,989.29
2018-05-11T11:02:35.246Z,989.32
2018-05-11T11:03:42.031Z,989.34
2018-05-11T11:04:48.798Z,989.31
2018-05-11T11:05:55.555Z,989.27
2018-05-11T11:07:02.306Z,989.22
2018-05-11T11:08:09.055Z,989.20
2018-05-11T11:09:15.830Z,989.20
2018-05-11T11:10:22.591Z,989.15
2018-05-11T11:11:29.384Z,989.13
2018-05-11T11:12:36.168Z,989.18
2018-05-11T11:13:42.914Z,989.10
2018-05-11T11:14:49.800Z,989.11
2018-05-11T11:15:56.587Z,989.12
2018-05-11T11:17:03.362Z,989.08
2018-05-11T11:18:10.165Z,989.03
2018-05-11T11:19:16.952Z,988.98
2018-05-11T11:20:23.709Z,989.05
2018-05-11T11:21:30.470Z,989.00
2018-05-11T11:22:37.230Z,989.05
2018-05-11T11:23:43.960Z,989.05
2018-05-11T11:24:50.755Z,989.02
2018-05-11T11:25:57.517Z,989.03
2018-05-11T11:27:04.292Z,989.03
2018-05-11T11:28:11.049Z,988.98
2018-05-11T11:29:17.786Z,988.98
2018-05-11T11:30:24.555Z,988.86
2018-05-11T11:31:31.329Z,988.89
2018-05-11T11:32:38.058Z,989.01
2018-05-11T11:33:44.804Z,989.02
2018-05-11T11:34:51.542Z,989.05
2018-05-11T11:35:58.719Z,989.00
2018-05-11T11:37:05.501Z,988.97
2018-05-11T11:38:12.223Z,988.98
2018-05-11T11:39:19.032Z,988.99
2018-05-11T11:40:25.790Z,989.00
2018-05-11T11:41:32.556Z,988.91
2018-05-11T11:42:40.020Z,988.92
2018-05-11T11:43:46.411Z,988.97
2018-05-11T11:44:53.161Z,988.92
2018-05-11T11:45:59.907Z,988.93
2018-05-11T11:47:06.735Z,988.94
2018-05-11T11:48:13.852Z,988.85
2018-05-11T11:49:20.758Z,988.87
2018-05-11T11:50:27.536Z,988.81
2018-05-11T11:51:34.324Z,988.77
2018-05-11T11:52:41.142Z,988.83
2018-05-11T11:53:47.838Z,988.81
2018-05-11T11:54:54.602Z,988.76
2018-05-11T11:56:01.330Z,988.77
2018-05-11T11:57:08.093Z,988.76
2018-05-11T11:58:14.854Z,988.74
2018-05-11T11:59:21.931Z,988.77
2018-05-11T12:00:28.683Z,988.75
2018-05-11T12:01:35.637Z,988.76
2018-05-11T12:02:42.586Z,988.70
2018-05-11T12:03:49.302Z,988.68
2018-05-11T12:04:56.062Z,988.71
2018-05-11T12:06:02.811Z,988.70
2018-05-11T12:07:09.551Z,988.71
2018-05-11T12:08:16.354Z,988.69
2018-05-11T12:09:23.122Z,988.68
2018-05-11T12:10:29.870Z,988.60
2018-05-11T12:11:36.606Z,988.66
2018-05-11T12:12:43.425Z,988.58
2018-05-11T12:13:50.168Z,988.50
2018-05-11T12:14:56.943Z,988.61
2018-05-11T12:16:03.661Z,988.51
2018-05-11T12:17:10.486Z,988.60
2018-05-11T12:18:17.236Z,988.58
2018-05-11T12:19:23.934Z,988.53
2018-05-11T12:20:30.667Z,988.50
2018-05-11T12:21:37.430Z,988.52
2018-05-11T12:22:44.161Z,988.55
2018-05-11T12:23:50.845Z,988.55
2018-05-11T12:24:57.579Z,988.53
2018-05-11T12:26:04.691Z,988.52
2018-05-11T12:27:11.550Z,988.59
2018-05-11T12:28:18.336Z,988.52
2018-05-11T12:29:25.144Z,988.52
2018-05-11T12:30:31.978Z,988.49
2018-05-11T12:31:38.729Z,988.47
2018-05-11T12:32:45.477Z,988.48
2018-05-11T12:33:52.230Z,988.47
2018-05-11T12:34:59.133Z,988.44
2018-05-11T12:36:05.863Z,988.46
2018-05-11T12:37:12.602Z,988.47
2018-05-11T12:38:19.338Z,988.47
2018-05-11T12:39:26.125Z,988.50
2018-05-11T12:40:33.004Z,988.46
2018-05-11T12:41:39.716Z,988.43
2018-05-11T12:42:46.766Z,988.42
2018-05-11T12:43:53.512Z,988.46
2018-05-11T12:45:00.311Z,988.43
2018-05-11T12:46:07.038Z,988.35
2018-05-11T12:47:13.815Z,988.45
2018-05-11T12:48:20.597Z,988.37
2018-05-11T12:49:27.613Z,988.44
2018-05-11T12:50:34.356Z,988.40
2018-05-11T12:51:41.130Z,988.31
2018-05-11T12:52:47.944Z,988.39
2018-05-11T12:53:54.698Z,988.33
2018-05-11T12:55:01.439Z,988.36
2018-05-11T12:56:08.466Z,988.35
2018-05-11T12:57:15.390Z,988.31
2018-05-11T12:58:22.150Z,988.28
2018-05-11T12:59:29.145Z,988.29
2018-05-11T13:00:35.914Z,988.31
2018-05-11T13:01:42.661Z,988.28
2018-05-11T13:02:49.374Z,988.29
2018-05-11T13:03:56.172Z,988.24
2018-05-11T13:05:02.878Z,988.18
2018-05-11T13:06:09.625Z,988.21
2018-05-11T13:07:16.504Z,988.20
2018-05-11T13:08:23.254Z,988.18
2018-05-11T13:09:29.997Z,988.18
2018-05-11T13:10:37.007Z,988.21
2018-05-11T13:11:43.403Z,988.30
2018-05-11T13:12:50.147Z,988.29
2018-05-11T13:13:56.929Z,988.29
2018-05-11T13:15:03.675Z,988.27
2018-05-11T13:16:10.490Z,988.25
2018-05-11T13:17:17.254Z,988.29
2018-05-11T13:18:24.011Z,988.30
2018-05-11T13:19:30.766Z,988.20
2018-05-11T13:20:37.651Z,988.21
2018-05-11T13:21:44.383Z,988.26
2018-05-11T13:22:51.111Z,988.25
2018-05-11T13:23:57.839Z,988.29
2018-05-11T13:25:04.603Z,988.22
2018-05-11T13:26:11.458Z,988.16
2018-05-11T13:27:18.158Z,988.18
2018-05-11T13:28:24.906Z,988.15
2018-05-11T13:29:31.683Z,988.12
2018-05-11T13:30:38.543Z,988.17
2018-05-11T13:31:45.257Z,988.17
2018-05-11T13:32:51.997Z,988.09
2018-05-11T13:33:58.842Z,988.10
2018-05-11T13:35:05.598Z,988.12
2018-05-11T13:36:12.375Z,988.09
2018-05-11T13:37:19.259Z,988.10
2018-05-11T13:38:26.024Z,988.08
2018-05-11T13:39:32.811Z,988.09
2018-05-11T13:40:39.678Z,987.99
2018-05-11T13:41:46.406Z,988.02
2018-05-11T13:42:53.170Z,988.05
2018-05-11T13:43:59.914Z,988.08
2018-05-11T13:45:06.670Z,988.04
2018-05-11T13:46:13.423Z,988.06
2018-05-11T13:47:20.190Z,988.02
2018-05-11T13:48:26.965Z,988.11
2018-05-11T13:49:33.719Z,988.12
2018-05-11T13:50:40.521Z,988.05
2018-05-11T13:51:47.273Z,988.10
2018-05-11T13:52:54.018Z,988.01
2018-05-11T13:54:00.794Z,988.03
2018-05-11T13:55:07.622Z,988.03